createdAt,value
2018-08-09T00:01:18.502Z,26.20
2018-08-09T00:03:47.088Z,26.30
2018-08-09T00:06:15.554Z,26.30
2018-08-09T00:08:44.057Z,26.20
2018-08-09T00:11:12.524Z,26.20
2018-08-09T00:13:41.058Z,26.30
2018-08-09T00:16:09.579Z,26.30
2018-08-09T00:18:38.026Z,26.30
2018-08-09T00:21:06.538Z,26.30
2018-08-09T00:23:35.011Z,26.20
2018-08-09T00:26:03.573Z,26.10
2018-08-09T00:28:32.083Z,26.00
2018-08-09T00:31:00.825Z,26.00
2018-08-09T00:33:29.329Z,26.10
2018-08-09T00:35:57.851Z,26.20
2018-08-09T00:38:26.314Z,26.30
2018-08-09T00:40:54.875Z,26.20
2018-08-09T00:43:23.365Z,26.20
2018-08-09T00:45:51.830Z,26.20
2018-08-09T00:48:20.339Z,26.20
2018-08-09T00:50:48.862Z,26.30
2018-08-09T00:53:17.351Z,26.30
2018-08-09T00:55:45.851Z,26.20
2018-08-09T00:58:14.392Z,26.10
2018-08-09T01:00:44.908Z,26.00
2018-08-09T01:03:13.424Z,26.00
2018-08-09T01:05:43.977Z,26.00
2018-08-09T01:08:12.518Z,26.00
2018-08-09T01:10:41.030Z,26.10
2018-08-09T01:13:09.548Z,26.20
2018-08-09T01:15:38.126Z,26.20
2018-08-09T01:18:08.134Z,26.10
2018-08-09T01:20:36.804Z,26.10
2018-08-09T01:23:05.288Z,26.00
2018-08-09T01:25:33.798Z,26.00
2018-08-09T01:28:02.278Z,26.00
2018-08-09T01:30:30.795Z,26.00
2018-08-09T01:32:59.311Z,26.10
2018-08-09T01:35:27.773Z,26.10
2018-08-09T01:37:56.314Z,26.10
2018-08-09T01:40:24.902Z,26.10
2018-08-09T01:43:05.478Z,26.20
2018-08-09T01:45:33.959Z,26.20
2018-08-09T01:48:02.523Z,26.20
2018-08-09T01:50:31.024Z,26.20
2018-08-09T01:52:59.520Z,26.10
2018-08-09T01:55:28.103Z,26.10
2018-08-09T01:57:56.603Z,26.20
2018-08-09T02:00:25.066Z,26.20
2018-08-09T02:02:53.591Z,26.20
2018-08-09T02:05:22.150Z,26.20
2018-08-09T02:07:50.646Z,26.10
2018-08-09T02:10:19.111Z,26.10
2018-08-09T02:12:47.606Z,25.90
2018-08-09T02:15:16.099Z,25.80
2018-08-09T02:17:44.595Z,25.80
2018-08-09T02:20:13.121Z,25.80
2018-08-09T02:22:41.751Z,25.80
2018-08-09T02:25:10.235Z,25.90
2018-08-09T02:27:38.716Z,25.90
2018-08-09T02:30:07.245Z,25.80
2018-08-09T02:32:35.831Z,25.80
2018-08-09T02:35:04.617Z,25.70
2018-08-09T02:37:33.189Z,25.70
2018-08-09T02:40:01.717Z,25.60
2018-08-09T02:42:30.227Z,25.50
2018-08-09T02:44:58.752Z,25.40
2018-08-09T02:47:28.267Z,25.40
2018-08-09T02:49:56.812Z,25.30
2018-08-09T02:52:25.304Z,25.30
2018-08-09T02:54:53.803Z,25.20
2018-08-09T02:57:22.332Z,25.20
2018-08-09T02:59:50.814Z,25.30
2018-08-09T03:02:19.483Z,25.30
2018-08-09T03:04:48.039Z,25.30
2018-08-09T03:07:16.611Z,25.30
2018-08-09T03:09:45.131Z,25.20
2018-08-09T03:12:13.687Z,25.20
2018-08-09T03:14:42.202Z,25.20
2018-08-09T03:17:10.784Z,25.30
2018-08-09T03:19:39.327Z,25.40
2018-08-09T03:22:07.862Z,25.50
2018-08-09T03:24:37.380Z,25.60
2018-08-09T03:27:06.090Z,25.70
2018-08-09T03:29:34.607Z,25.80
2018-08-09T03:32:03.127Z,25.80
2018-08-09T03:34:31.688Z,25.90
2018-08-09T03:37:00.289Z,25.80
2018-08-09T03:39:28.752Z,25.70
2018-08-09T03:41:57.254Z,25.50
2018-08-09T03:44:25.754Z,25.60
2018-08-09T03:46:54.238Z,25.60
2018-08-09T03:49:22.703Z,25.60
2018-08-09T03:51:51.205Z,25.70
2018-08-09T03:54:19.670Z,25.70
2018-08-09T03:56:48.175Z,25.50
2018-08-09T03:59:16.669Z,25.40
2018-08-09T04:01:45.221Z,25.40
2018-08-09T04:04:13.806Z,25.40
2018-08-09T04:06:42.283Z,25.40
2018-08-09T04:09:11.841Z,25.50
2018-08-09T04:11:40.832Z,25.50
2018-08-09T04:14:09.872Z,25.50
2018-08-09T04:16:39.139Z,25.60
2018-08-09T04:19:07.711Z,25.80
2018-08-09T04:21:36.235Z,25.80
2018-08-09T04:24:04.767Z,25.90
2018-08-09T04:26:33.407Z,26.00
2018-08-09T04:29:02.510Z,26.00
2018-08-09T04:31:30.976Z,26.00
2018-08-09T04:33:59.543Z,26.00
2018-08-09T04:36:28.054Z,26.00
2018-08-09T04:38:56.587Z,25.90
2018-08-09T04:41:25.130Z,26.00
2018-08-09T04:43:53.622Z,26.00
2018-08-09T04:46:22.120Z,26.10
2018-08-09T04:48:50.634Z,26.10
2018-08-09T04:51:19.120Z,26.20
2018-08-09T04:53:47.923Z,26.30
2018-08-09T04:56:16.543Z,26.40
2018-08-09T04:58:44.993Z,26.40
2018-08-09T05:01:13.452Z,26.40
2018-08-09T05:03:41.939Z,26.30
2018-08-09T05:06:10.459Z,26.00
2018-08-09T05:08:39.144Z,25.90
2018-08-09T05:11:07.771Z,26.00
2018-08-09T05:13:36.328Z,26.00
2018-08-09T05:16:04.815Z,25.90
2018-08-09T05:18:33.339Z,25.80
2018-08-09T05:21:01.811Z,25.80
2018-08-09T05:23:30.291Z,25.90
2018-08-09T05:25:58.851Z,26.00
2018-08-09T05:28:27.360Z,26.10
2018-08-09T05:30:55.907Z,26.20
2018-08-09T05:33:24.584Z,26.30
2018-08-09T05:35:53.100Z,26.30
2018-08-09T05:38:21.646Z,26.40
2018-08-09T05:40:50.152Z,26.40
2018-08-09T05:43:18.651Z,26.30
2018-08-09T05:45:47.222Z,26.30
2018-08-09T05:48:15.706Z,26.30
2018-08-09T05:50:44.242Z,26.40
2018-08-09T05:53:12.732Z,26.50
2018-08-09T05:55:41.244Z,26.70
2018-08-09T05:58:09.741Z,26.90
2018-08-09T06:00:38.848Z,27.00
2018-08-09T06:03:08.028Z,27.10
2018-08-09T06:05:36.571Z,27.30
2018-08-09T06:08:05.159Z,27.50
2018-08-09T06:10:34.710Z,27.40
2018-08-09T06:41:39.921Z,26.60
2018-08-09T06:44:09.965Z,27.00
2018-08-09T06:46:38.790Z,27.70
2018-08-09T06:49:07.311Z,28.30
2018-08-09T06:51:35.856Z,28.50
2018-08-09T06:54:04.720Z,28.50
2018-08-09T06:56:35.288Z,28.50
2018-08-09T06:59:05.000Z,28.40
2018-08-09T07:01:58.219Z,28.40
2018-08-09T07:04:26.987Z,28.50
2018-08-09T07:06:55.674Z,28.60
2018-08-09T07:09:24.295Z,28.50
2018-08-09T07:11:52.767Z,28.50
2018-08-09T07:14:21.259Z,28.50
2018-08-09T07:16:50.377Z,28.70
2018-08-09T07:19:18.832Z,28.90
2018-08-09T07:21:47.451Z,29.00
2018-08-09T07:24:16.014Z,29.10
2018-08-09T07:26:44.559Z,29.10
2018-08-09T07:29:13.051Z,29.00
2018-08-09T07:31:41.572Z,28.80
2018-08-09T07:34:10.207Z,28.80
2018-08-09T07:36:38.755Z,28.70
2018-08-09T07:39:09.352Z,28.70
2018-08-09T07:41:38.763Z,28.80
2018-08-09T07:44:07.365Z,29.00
2018-08-09T07:46:37.560Z,29.00
2018-08-09T07:49:07.387Z,29.10
2018-08-09T07:51:36.356Z,29.10
2018-08-09T07:54:05.297Z,29.00
2018-08-09T07:56:33.977Z,28.80
2018-08-09T07:59:02.969Z,28.70
2018-08-09T08:01:31.572Z,28.70
2018-08-09T08:04:00.208Z,28.80
2018-08-09T08:06:31.555Z,29.10
2018-08-09T08:09:00.095Z,29.30
2018-08-09T08:11:31.664Z,29.60
2018-08-09T08:14:02.433Z,29.60
2018-08-09T08:16:31.099Z,29.40
2018-08-09T08:18:59.610Z,29.30
2018-08-09T08:21:28.130Z,29.40
2018-08-09T08:23:56.891Z,29.40
2018-08-09T08:26:25.447Z,29.50
2018-08-09T08:28:54.009Z,29.70
2018-08-09T08:31:22.607Z,29.70
2018-08-09T08:36:32.602Z,29.50
2018-08-09T08:39:02.721Z,29.60
2018-08-09T08:41:35.332Z,29.80
2018-08-09T08:44:12.496Z,30.00
2018-08-09T08:46:42.704Z,30.10
2018-08-09T08:49:11.343Z,30.30
2018-08-09T08:51:39.859Z,30.60
2018-08-09T08:54:08.515Z,30.70
2018-08-09T08:56:37.076Z,30.60
2018-08-09T08:59:05.618Z,30.70
2018-08-09T09:01:34.199Z,30.90
2018-08-09T09:04:02.730Z,30.90
2018-08-09T09:06:32.318Z,30.80
2018-08-09T09:09:00.865Z,30.80
2018-08-09T09:11:36.182Z,31.00
2018-08-09T09:14:04.954Z,31.20
2018-08-09T09:16:33.668Z,31.20
2018-08-09T09:19:02.257Z,31.10
2018-08-09T09:21:30.852Z,31.10
2018-08-09T09:23:59.382Z,31.10
2018-08-09T09:26:27.981Z,31.10
2018-08-09T09:28:56.573Z,31.20
2018-08-09T09:31:25.106Z,31.30
2018-08-09T09:33:53.650Z,31.30
2018-08-09T09:36:22.232Z,31.30
2018-08-09T09:38:50.802Z,31.40
2018-08-09T09:41:19.256Z,31.50
2018-08-09T09:43:47.780Z,31.50
2018-08-09T09:46:16.339Z,31.50
2018-08-09T09:48:44.807Z,31.60
2018-08-09T09:51:13.170Z,31.70
2018-08-09T09:53:41.595Z,31.50
2018-08-09T09:56:10.096Z,31.50
2018-08-09T09:58:38.941Z,31.40
2018-08-09T10:01:12.815Z,31.40
2018-08-09T10:03:41.523Z,31.40
2018-08-09T10:06:10.101Z,31.50
2018-08-09T10:08:39.587Z,31.60
2018-08-09T10:11:09.120Z,31.60
2018-08-09T10:13:37.695Z,31.70
2018-08-09T10:16:06.241Z,31.70
2018-08-09T10:18:34.758Z,31.70
2018-08-09T10:21:03.355Z,31.80
2018-08-09T10:23:31.991Z,31.90
2018-08-09T10:26:00.595Z,32.00
2018-08-09T10:28:29.169Z,32.10
2018-08-09T10:30:57.763Z,32.40
2018-08-09T10:33:26.359Z,32.70
2018-08-09T10:35:54.843Z,32.80
2018-08-09T10:38:23.624Z,32.70
2018-08-09T10:40:52.114Z,32.90
2018-08-09T10:43:20.677Z,32.90
2018-08-09T10:45:49.308Z,32.90
2018-08-09T10:48:17.791Z,32.90
2018-08-09T10:50:46.263Z,32.90
2018-08-09T10:53:14.816Z,33.10
2018-08-09T10:55:43.720Z,33.00
2018-08-09T10:58:12.215Z,32.90
2018-08-09T11:00:41.076Z,32.80
2018-08-09T11:03:09.591Z,32.90
2018-08-09T11:05:40.281Z,33.20
2018-08-09T11:08:08.760Z,33.20
2018-08-09T11:10:37.353Z,33.30
2018-08-09T11:13:05.846Z,33.60
2018-08-09T11:15:34.403Z,34.00
2018-08-09T11:18:02.928Z,34.30
2018-08-09T11:20:31.383Z,34.20
2018-08-09T11:22:59.878Z,34.10
2018-08-09T11:25:28.416Z,33.80
2018-08-09T11:27:56.919Z,33.70
2018-08-09T11:30:25.523Z,33.80
2018-08-09T11:32:54.007Z,33.90
2018-08-09T11:35:22.498Z,33.90
2018-08-09T11:37:50.987Z,33.80
2018-08-09T11:40:19.498Z,33.80
2018-08-09T11:42:48.022Z,33.80
2018-08-09T11:45:16.579Z,33.80
2018-08-09T11:47:45.064Z,33.80
2018-08-09T11:50:13.571Z,33.80
2018-08-09T11:52:42.052Z,33.80
2018-08-09T11:55:10.667Z,33.80
2018-08-09T11:57:39.209Z,33.90
2018-08-09T12:00:08.188Z,34.00
2018-08-09T12:02:36.711Z,34.10
2018-08-09T12:05:05.271Z,34.10
2018-08-09T12:07:34.211Z,33.90
2018-08-09T12:10:02.690Z,33.60
2018-08-09T12:12:31.246Z,33.50
2018-08-09T12:14:59.766Z,33.40
2018-08-09T12:17:28.331Z,33.20
2018-08-09T12:19:56.898Z,33.10
2018-08-09T12:22:25.528Z,33.10
2018-08-09T12:24:55.419Z,32.90
2018-08-09T12:27:23.912Z,32.90
2018-08-09T12:29:52.494Z,32.80
2018-08-09T12:32:21.076Z,32.80
2018-08-09T12:34:49.569Z,32.80
2018-08-09T12:37:18.201Z,32.90
2018-08-09T12:39:46.824Z,33.00
2018-08-09T12:42:15.417Z,32.90
2018-08-09T12:44:44.194Z,32.90
2018-08-09T12:47:12.750Z,32.80
2018-08-09T12:49:41.301Z,32.70
2018-08-09T12:52:09.823Z,32.70
2018-08-09T12:54:38.387Z,32.60
2018-08-09T12:57:06.908Z,32.50
2018-08-09T12:59:35.944Z,32.50
2018-08-09T13:02:04.535Z,32.40
2018-08-09T13:04:33.088Z,32.30
2018-08-09T13:07:01.662Z,32.20
2018-08-09T13:09:31.407Z,32.10
2018-08-09T13:11:59.951Z,32.00
2018-08-09T13:14:28.550Z,31.90
2018-08-09T13:16:57.144Z,31.60
2018-08-09T13:19:25.642Z,31.20
2018-08-09T13:21:54.198Z,30.80
2018-08-09T13:24:22.806Z,30.50
2018-08-09T13:26:51.346Z,30.10
2018-08-09T13:29:19.927Z,29.70
2018-08-09T13:31:48.479Z,29.40
2018-08-09T13:34:17.044Z,29.20
2018-08-09T13:36:45.634Z,29.00
2018-08-09T13:39:14.352Z,28.90
2018-08-09T13:41:44.290Z,28.70
2018-08-09T13:44:13.167Z,28.60
2018-08-09T13:46:42.210Z,28.50
2018-08-09T13:49:10.811Z,28.40
2018-08-09T13:51:39.701Z,28.40
2018-08-09T13:54:08.458Z,28.50
2018-08-09T13:56:37.020Z,28.40
2018-08-09T13:59:05.571Z,28.30
2018-08-09T14:01:34.063Z,28.30
2018-08-09T14:04:02.692Z,28.40
2018-08-09T14:06:31.780Z,28.50
2018-08-09T14:09:00.252Z,28.50
2018-08-09T14:11:28.802Z,28.50
2018-08-09T14:13:57.348Z,28.50
2018-08-09T14:24:58.050Z,28.30
2018-08-09T14:27:26.514Z,28.30
2018-08-09T14:29:55.194Z,28.40
2018-08-09T14:32:23.764Z,28.70
2018-08-09T14:34:52.263Z,28.90
2018-08-09T14:37:20.812Z,29.00
2018-08-09T14:39:49.311Z,29.20
2018-08-09T15:07:51.323Z,28.70
2018-08-09T15:10:19.891Z,28.70
2018-08-09T15:12:48.505Z,28.60
2018-08-09T15:15:17.001Z,28.60
2018-08-09T15:17:45.598Z,28.60
2018-08-09T15:20:14.668Z,28.60
2018-08-09T15:22:43.302Z,28.60
2018-08-09T15:25:12.163Z,28.50
2018-08-09T15:27:40.870Z,28.50
2018-08-09T15:30:17.861Z,28.50
2018-08-09T15:32:47.979Z,28.50
2018-08-09T15:35:16.648Z,28.40
2018-08-09T15:37:45.615Z,28.40
2018-08-09T15:40:15.547Z,28.40
2018-08-09T15:42:44.115Z,28.30
2018-08-09T15:45:14.063Z,28.30
2018-08-09T15:47:42.893Z,28.30
2018-08-09T15:50:14.295Z,28.30
2018-08-09T15:52:43.062Z,28.30
2018-08-09T15:55:12.008Z,28.30
2018-08-09T15:57:40.614Z,28.20
2018-08-09T16:00:21.877Z,28.10
2018-08-09T16:02:50.521Z,28.10
2018-08-09T16:05:19.154Z,28.10
2018-08-09T16:07:47.835Z,28.10
2018-08-09T16:10:17.320Z,28.20
2018-08-09T16:12:46.185Z,28.20
2018-08-09T16:15:16.101Z,28.20
2018-08-09T16:17:45.521Z,28.20
2018-08-09T16:20:14.148Z,28.20
2018-08-09T16:22:43.631Z,28.20
2018-08-09T16:28:06.024Z,28.20
2018-08-09T16:30:34.674Z,28.20
2018-08-09T16:33:03.204Z,28.20
2018-08-09T16:35:31.829Z,28.20
2018-08-09T16:38:01.369Z,28.30
2018-08-09T16:40:30.096Z,28.30
2018-08-09T16:42:58.655Z,28.20
2018-08-09T16:45:39.047Z,28.20
2018-08-09T16:48:07.554Z,28.20
2018-08-09T16:50:36.058Z,28.20
2018-08-09T16:53:04.715Z,28.10
2018-08-09T16:55:33.216Z,28.20
2018-08-09T16:58:01.712Z,28.10
2018-08-09T17:00:30.229Z,28.20
2018-08-09T17:02:58.770Z,28.20
2018-08-09T17:05:28.104Z,28.10
2018-08-09T17:07:56.915Z,28.20
2018-08-09T17:10:26.374Z,28.20
2018-08-09T17:12:55.024Z,28.20
2018-08-09T17:15:25.675Z,28.20
2018-08-09T17:17:58.310Z,28.30
2018-08-09T17:20:31.135Z,28.30
2018-08-09T17:23:00.773Z,28.30
2018-08-09T17:25:30.326Z,28.30
2018-08-09T17:27:58.936Z,28.30
2018-08-09T17:30:28.424Z,28.40
2018-08-09T17:32:57.894Z,28.40
2018-08-09T17:35:26.542Z,28.50
2018-08-09T17:37:55.899Z,28.60
2018-08-09T17:40:26.747Z,28.70
2018-08-09T17:42:56.260Z,28.70
2018-08-09T17:45:36.392Z,28.70
2018-08-09T17:48:05.550Z,28.80
2018-08-09T17:50:34.090Z,28.90
2018-08-09T17:53:03.494Z,28.90
2018-08-09T17:55:32.663Z,28.90
2018-08-09T17:58:01.326Z,28.90
2018-08-09T18:00:31.425Z,28.80
2018-08-09T18:03:00.032Z,28.80
2018-08-09T18:05:28.933Z,28.80
2018-08-09T18:07:58.821Z,28.80
2018-08-09T18:10:30.441Z,28.80
2018-08-09T18:13:00.459Z,28.70
2018-08-09T18:15:30.061Z,28.70
2018-08-09T18:17:59.466Z,28.60
2018-08-09T18:20:29.927Z,28.50
2018-08-09T18:22:58.671Z,28.40
2018-08-09T18:25:27.514Z,28.40
2018-08-09T18:27:56.155Z,28.30
2018-08-09T18:30:24.730Z,28.30
2018-08-09T18:32:53.364Z,28.30
2018-08-09T18:35:21.884Z,28.20
2018-08-09T18:37:50.508Z,28.10
2018-08-09T18:40:21.047Z,28.00
2018-08-09T18:42:49.692Z,27.90
2018-08-09T18:45:18.640Z,27.80
2018-08-09T18:47:47.275Z,27.70
2018-08-09T18:50:18.784Z,27.60
2018-08-09T18:52:47.448Z,27.50
2018-08-09T18:55:17.205Z,27.50
2018-08-09T18:57:45.794Z,27.50
2018-08-09T19:00:27.084Z,27.40
2018-08-09T19:02:56.005Z,27.20
2018-08-09T19:05:24.819Z,27.10
2018-08-09T19:07:53.443Z,27.10
2018-08-09T19:10:26.397Z,27.00
2018-08-09T19:12:54.956Z,27.00
2018-08-09T19:15:24.619Z,26.90
2018-08-09T19:17:53.447Z,26.80
2018-08-09T19:20:28.476Z,26.70
2018-08-09T19:22:57.314Z,26.60
2018-08-09T19:25:25.911Z,26.60
2018-08-09T19:27:54.607Z,26.60
2018-08-09T19:30:25.750Z,26.60
2018-08-09T19:32:54.351Z,26.50
2018-08-09T19:35:24.017Z,26.50
2018-08-09T19:37:52.634Z,26.50
2018-08-09T19:40:25.919Z,26.50
2018-08-09T19:42:54.548Z,26.50
2018-08-09T19:45:24.055Z,26.40
2018-08-09T19:47:55.464Z,26.30
2018-08-09T19:50:24.825Z,26.20
2018-08-09T19:52:54.200Z,26.20
2018-08-09T19:55:26.815Z,26.10
2018-08-09T19:57:56.135Z,26.10
2018-08-09T20:00:29.622Z,26.00
2018-08-09T20:03:01.818Z,26.00
2018-08-09T20:05:31.420Z,25.90
2018-08-09T20:08:01.125Z,25.90
2018-08-09T20:10:34.319Z,25.80
2018-08-09T20:13:02.982Z,25.80
2018-08-09T20:15:31.632Z,25.80
2018-08-09T20:18:00.279Z,25.70
2018-08-09T20:20:28.940Z,25.70
2018-08-09T20:22:57.698Z,25.70
2018-08-09T20:25:26.414Z,25.70
2018-08-09T20:27:55.833Z,25.70
2018-08-09T20:30:24.450Z,25.60
2018-08-09T20:32:53.035Z,25.60
2018-08-09T20:35:23.347Z,25.60
2018-08-09T20:37:52.862Z,25.50
2018-08-09T20:40:22.588Z,25.50
2018-08-09T20:42:52.162Z,25.50
2018-08-09T20:45:26.168Z,25.50
2018-08-09T20:47:55.568Z,25.40
2018-08-09T20:50:25.949Z,25.40
2018-08-09T20:52:57.967Z,25.30
2018-08-09T20:55:27.978Z,25.30
2018-08-09T20:57:57.743Z,25.30
2018-08-09T21:00:30.851Z,25.20
2018-08-09T21:03:02.760Z,25.20
2018-08-09T21:05:42.710Z,25.10
2018-08-09T21:08:11.521Z,25.00
2018-08-09T21:10:40.563Z,24.90
2018-08-09T21:13:10.034Z,24.90
2018-08-09T21:15:38.620Z,24.80
2018-08-09T21:18:07.462Z,24.70
2018-08-09T21:20:35.926Z,24.60
2018-08-09T21:23:04.467Z,24.50
2018-08-09T21:25:33.118Z,24.50
2018-08-09T21:28:01.604Z,24.30
2018-08-09T21:30:30.136Z,24.20
2018-08-09T21:32:58.747Z,24.00
2018-08-09T21:35:27.351Z,24.00
2018-08-09T21:37:55.931Z,24.00
2018-08-09T21:40:24.428Z,23.90
2018-08-09T21:42:53.034Z,23.80
2018-08-09T21:45:22.710Z,23.80
2018-08-09T21:47:51.218Z,23.70
2018-08-09T21:50:21.084Z,23.70
2018-08-09T21:52:49.763Z,23.80
2018-08-09T21:55:19.323Z,23.80
2018-08-09T21:57:48.179Z,23.80
2018-08-09T22:00:31.789Z,23.90
2018-08-09T22:03:00.318Z,24.00
2018-08-09T22:07:40.092Z,24.00
2018-08-09T22:10:14.952Z,24.10
2018-08-09T22:12:48.684Z,24.20
2018-08-09T22:15:22.470Z,24.20
2018-08-09T22:17:56.316Z,24.10
2018-08-09T22:20:30.189Z,24.00
2018-08-09T22:22:58.711Z,24.00
2018-08-09T22:25:27.243Z,23.90
2018-08-09T22:27:55.770Z,23.90
2018-08-09T22:30:24.259Z,23.80
2018-08-09T22:32:53.702Z,23.80
2018-08-09T22:35:22.430Z,23.90
2018-08-09T22:37:52.049Z,24.00
2018-08-09T22:40:20.495Z,24.00
2018-08-09T22:42:49.037Z,24.00
2018-08-09T22:45:17.570Z,24.00
2018-08-09T22:47:46.199Z,24.10
2018-08-09T22:50:14.794Z,24.00
2018-08-09T22:52:43.311Z,23.90
2018-08-09T22:55:11.841Z,23.90
2018-08-09T22:57:40.423Z,23.90
2018-08-09T23:00:22.396Z,23.80
2018-08-09T23:02:51.259Z,23.80
2018-08-09T23:05:20.848Z,23.80
2018-08-09T23:07:49.977Z,23.70
2018-08-09T23:10:18.607Z,23.80
2018-08-09T23:12:47.184Z,23.80
2018-08-09T23:15:15.862Z,23.80
2018-08-09T23:17:45.064Z,23.80
2018-08-09T23:20:13.651Z,23.80
2018-08-09T23:22:42.267Z,23.90
2018-08-09T23:25:13.590Z,23.90
2018-08-09T23:27:42.852Z,23.90
2018-08-09T23:30:12.071Z,23.90
2018-08-09T23:32:53.865Z,23.90
2018-08-09T23:35:22.347Z,23.80
2018-08-09T23:37:51.434Z,23.60
2018-08-09T23:40:19.985Z,23.50
2018-08-09T23:42:48.551Z,23.40
2018-08-09T23:45:18.115Z,23.30
2018-08-09T23:47:46.951Z,23.30
2018-08-09T23:50:15.489Z,23.20
2018-08-09T23:52:44.066Z,23.10
2018-08-09T23:55:15.855Z,23.00
2018-08-09T23:57:44.410Z,23.10
